sensor_id;sensor_type;location;lat;lon;timestamp;temperature;humidity
22224;DHT22;11281;52.194;21.006;2023-08-21T00:03:53;19.80;99.90
22224;DHT22;11281;52.194;21.006;2023-08-21T00:07:55;19.70;99.90
22224;DHT22;11281;52.194;21.006;2023-08-21T00:11:57;19.70;99.90
22224;DHT22;11281;52.194;21.006;2023-08-21T00:15:59;19.70;99.90
22224;DHT22;11281;52.194;21.006;2023-08-21T00:20:01;19.60;99.90
22224;DHT22;11281;52.194;21.006;2023-08-21T00:24:06;19.60;99.90
22224;DHT22;11281;52.194;21.006;2023-08-21T00:28:07;19.60;99.90
22224;DHT22;11281;52.194;21.006;2023-08-21T00:32:09;19.50;99.90
22224;DHT22;11281;52.194;21.006;2023-08-21T00:36:13;19.40;99.90
22224;DHT22;11281;52.194;21.006;2023-08-21T00:40:15;19.40;99.90
22224;DHT22;11281;52.194;21.006;2023-08-21T00:44:16;19.30;99.90
22224;DHT22;11281;52.194;21.006;2023-08-21T00:48:18;19.30;99.90
22224;DHT22;11281;52.194;21.006;2023-08-21T00:52:21;19.30;99.90
22224;DHT22;11281;52.194;21.006;2023-08-21T00:56:23;19.20;99.90
22224;DHT22;11281;52.194;21.006;2023-08-21T01:00:25;19.20;99.90
22224;DHT22;11281;52.194;21.006;2023-08-21T01:04:28;19.20;99.90
22224;DHT22;11281;52.194;21.006;2023-08-21T01:08:39;19.20;99.90
22224;DHT22;11281;52.194;21.006;2023-08-21T01:12:47;19.20;99.90
22224;DHT22;11281;52.194;21.006;2023-08-21T01:17:00;19.10;99.90
22224;DHT22;11281;52.194;21.006;2023-08-21T01:21:04;19.10;99.90
22224;DHT22;11281;52.194;21.006;2023-08-21T01:25:07;19.10;99.90
22224;DHT22;11281;52.194;21.006;2023-08-21T01:29:10;19.00;99.90
22224;DHT22;11281;52.194;21.006;2023-08-21T01:33:12;19.00;99.90
22224;DHT22;11281;52.194;21.006;2023-08-21T01:37:17;19.00;99.90
22224;DHT22;11281;52.194;21.006;2023-08-21T01:41:19;19.10;99.90
22224;DHT22;11281;52.194;21.006;2023-08-21T01:45:24;19.00;99.90
22224;DHT22;11281;52.194;21.006;2023-08-21T01:49:26;19.00;99.90
22224;DHT22;11281;52.194;21.006;2023-08-21T01:53:28;19.00;99.90
22224;DHT22;11281;52.194;21.006;2023-08-21T01:57:30;19.00;99.90
22224;DHT22;11281;52.194;21.006;2023-08-21T02:01:32;19.00;99.90
22224;DHT22;11281;52.194;21.006;2023-08-21T02:05:41;19.10;99.90
22224;DHT22;11281;52.194;21.006;2023-08-21T02:09:44;19.10;99.90
22224;DHT22;11281;52.194;21.006;2023-08-21T02:13:45;19.00;99.90
22224;DHT22;11281;52.194;21.006;2023-08-21T02:17:46;19.00;99.90
22224;DHT22;11281;52.194;21.006;2023-08-21T02:21:48;18.90;99.90
22224;DHT22;11281;52.194;21.006;2023-08-21T02:25:50;18.80;99.90
22224;DHT22;11281;52.194;21.006;2023-08-21T02:29:51;18.80;99.90
22224;DHT22;11281;52.194;21.006;2023-08-21T02:33:53;18.80;99.90
22224;DHT22;11281;52.194;21.006;2023-08-21T02:37:55;18.70;99.90
22224;DHT22;11281;52.194;21.006;2023-08-21T02:41:57;18.70;99.90
22224;DHT22;11281;52.194;21.006;2023-08-21T02:45:58;18.70;99.90
22224;DHT22;11281;52.194;21.006;2023-08-21T02:50:00;18.60;99.90
22224;DHT22;11281;52.194;21.006;2023-08-21T02:54:02;18.60;99.90
22224;DHT22;11281;52.194;21.006;2023-08-21T02:58:04;18.60;99.90
22224;DHT22;11281;52.194;21.006;2023-08-21T03:02:05;18.60;99.90
22224;DHT22;11281;52.194;21.006;2023-08-21T03:06:07;18.50;99.90
22224;DHT22;11281;52.194;21.006;2023-08-21T03:10:09;18.50;99.90
22224;DHT22;11281;52.194;21.006;2023-08-21T03:14:11;18.50;99.90
22224;DHT22;11281;52.194;21.006;2023-08-21T03:18:12;18.40;99.90
22224;DHT22;11281;52.194;21.006;2023-08-21T03:22:14;18.40;99.90
22224;DHT22;11281;52.194;21.006;2023-08-21T03:26:16;18.30;99.90
22224;DHT22;11281;52.194;21.006;2023-08-21T03:30:18;18.40;99.90
22224;DHT22;11281;52.194;21.006;2023-08-21T03:34:19;18.30;99.90
22224;DHT22;11281;52.194;21.006;2023-08-21T03:38:20;18.40;99.90
22224;DHT22;11281;52.194;21.006;2023-08-21T03:42:22;18.30;99.90
22224;DHT22;11281;52.194;21.006;2023-08-21T03:46:23;18.40;99.90
22224;DHT22;11281;52.194;21.006;2023-08-21T03:50:26;18.40;99.90
22224;DHT22;11281;52.194;21.006;2023-08-21T03:54:28;18.40;99.90
22224;DHT22;11281;52.194;21.006;2023-08-21T03:58:29;18.40;99.90
22224;DHT22;11281;52.194;21.006;2023-08-21T04:02:30;18.40;99.90
22224;DHT22;11281;52.194;21.006;2023-08-21T04:06:32;18.50;99.90
22224;DHT22;11281;52.194;21.006;2023-08-21T04:10:34;18.50;99.90
22224;DHT22;11281;52.194;21.006;2023-08-21T04:14:36;18.50;99.90
22224;DHT22;11281;52.194;21.006;2023-08-21T04:18:38;18.60;99.90
22224;DHT22;11281;52.194;21.006;2023-08-21T04:22:40;18.60;99.90
22224;DHT22;11281;52.194;21.006;2023-08-21T04:26:42;18.70;99.90
22224;DHT22;11281;52.194;21.006;2023-08-21T04:30:44;18.70;99.90
22224;DHT22;11281;52.194;21.006;2023-08-21T04:34:46;18.80;99.90
22224;DHT22;11281;52.194;21.006;2023-08-21T04:38:48;18.80;99.90
22224;DHT22;11281;52.194;21.006;2023-08-21T04:42:50;19.00;99.90
22224;DHT22;11281;52.194;21.006;2023-08-21T04:46:51;19.30;99.90
22224;DHT22;11281;52.194;21.006;2023-08-21T04:50:54;19.60;99.90
22224;DHT22;11281;52.194;21.006;2023-08-21T04:54:56;20.00;99.90
22224;DHT22;11281;52.194;21.006;2023-08-21T04:58:57;20.20;99.90
22224;DHT22;11281;52.194;21.006;2023-08-21T05:02:59;20.40;99.90
22224;DHT22;11281;52.194;21.006;2023-08-21T05:07:01;20.50;99.90
22224;DHT22;11281;52.194;21.006;2023-08-21T05:11:02;20.60;99.90
22224;DHT22;11281;52.194;21.006;2023-08-21T05:15:04;20.70;99.90
22224;DHT22;11281;52.194;21.006;2023-08-21T05:19:05;20.80;99.90
22224;DHT22;11281;52.194;21.006;2023-08-21T05:23:07;20.90;99.90
22224;DHT22;11281;52.194;21.006;2023-08-21T05:27:09;21.00;99.90
22224;DHT22;11281;52.194;21.006;2023-08-21T05:31:11;21.10;99.90
22224;DHT22;11281;52.194;21.006;2023-08-21T05:35:13;21.10;99.90
22224;DHT22;11281;52.194;21.006;2023-08-21T05:39:14;21.20;99.90
22224;DHT22;11281;52.194;21.006;2023-08-21T05:43:17;21.30;99.90
22224;DHT22;11281;52.194;21.006;2023-08-21T05:47:18;21.50;99.90
22224;DHT22;11281;52.194;21.006;2023-08-21T05:51:20;21.70;99.90
22224;DHT22;11281;52.194;21.006;2023-08-21T05:55:22;21.70;99.90
22224;DHT22;11281;52.194;21.006;2023-08-21T05:59:30;21.80;99.90
22224;DHT22;11281;52.194;21.006;2023-08-21T06:03:33;21.60;99.90
22224;DHT22;11281;52.194;21.006;2023-08-21T06:07:34;21.60;99.90
22224;DHT22;11281;52.194;21.006;2023-08-21T06:11:36;21.80;99.90
22224;DHT22;11281;52.194;21.006;2023-08-21T06:15:39;22.10;99.90
22224;DHT22;11281;52.194;21.006;2023-08-21T06:19:44;22.30;99.90
22224;DHT22;11281;52.194;21.006;2023-08-21T06:23:49;22.30;99.90
22224;DHT22;11281;52.194;21.006;2023-08-21T06:27:51;23.00;99.90
22224;DHT22;11281;52.194;21.006;2023-08-21T06:31:53;22.70;99.90
22224;DHT22;11281;52.194;21.006;2023-08-21T06:35:55;22.40;99.90
22224;DHT22;11281;52.194;21.006;2023-08-21T06:39:57;22.80;99.90
22224;DHT22;11281;52.194;21.006;2023-08-21T06:43:58;22.60;99.90
22224;DHT22;11281;52.194;21.006;2023-08-21T06:48:01;23.10;99.90
22224;DHT22;11281;52.194;21.006;2023-08-21T06:52:03;23.60;99.90
22224;DHT22;11281;52.194;21.006;2023-08-21T06:56:05;23.80;99.90
22224;DHT22;11281;52.194;21.006;2023-08-21T07:00:08;24.10;99.90
22224;DHT22;11281;52.194;21.006;2023-08-21T07:04:10;24.10;99.90
22224;DHT22;11281;52.194;21.006;2023-08-21T07:08:12;24.40;99.90
22224;DHT22;11281;52.194;21.006;2023-08-21T07:12:14;24.60;99.90
22224;DHT22;11281;52.194;21.006;2023-08-21T07:16:16;24.50;99.90
22224;DHT22;11281;52.194;21.006;2023-08-21T07:20:18;24.10;99.90
22224;DHT22;11281;52.194;21.006;2023-08-21T07:24:20;24.20;99.90
22224;DHT22;11281;52.194;21.006;2023-08-21T07:28:22;23.90;99.90
22224;DHT22;11281;52.194;21.006;2023-08-21T07:32:24;23.90;99.90
22224;DHT22;11281;52.194;21.006;2023-08-21T07:36:26;23.90;99.90
22224;DHT22;11281;52.194;21.006;2023-08-21T07:40:28;23.80;99.90
22224;DHT22;11281;52.194;21.006;2023-08-21T07:44:29;23.60;99.90
22224;DHT22;11281;52.194;21.006;2023-08-21T07:48:32;23.50;99.90
22224;DHT22;11281;52.194;21.006;2023-08-21T07:52:36;23.70;99.90
22224;DHT22;11281;52.194;21.006;2023-08-21T07:56:38;23.80;99.90
22224;DHT22;11281;52.194;21.006;2023-08-21T08:00:42;23.40;99.90
22224;DHT22;11281;52.194;21.006;2023-08-21T08:04:46;23.50;99.90
22224;DHT22;11281;52.194;21.006;2023-08-21T08:08:48;24.10;99.90
22224;DHT22;11281;52.194;21.006;2023-08-21T08:12:49;24.20;99.90
22224;DHT22;11281;52.194;21.006;2023-08-21T08:16:51;23.90;99.90
22224;DHT22;11281;52.194;21.006;2023-08-21T08:20:52;24.10;99.90
22224;DHT22;11281;52.194;21.006;2023-08-21T08:24:55;24.30;99.90
22224;DHT22;11281;52.194;21.006;2023-08-21T08:28:57;24.60;99.90
22224;DHT22;11281;52.194;21.006;2023-08-21T08:33:00;24.80;99.90
22224;DHT22;11281;52.194;21.006;2023-08-21T08:37:02;25.10;99.90
22224;DHT22;11281;52.194;21.006;2023-08-21T08:41:09;24.50;99.90
22224;DHT22;11281;52.194;21.006;2023-08-21T08:45:28;24.30;99.90
22224;DHT22;11281;52.194;21.006;2023-08-21T08:49:32;24.50;99.90
22224;DHT22;11281;52.194;21.006;2023-08-21T08:53:34;24.20;99.90
22224;DHT22;11281;52.194;21.006;2023-08-21T08:57:37;24.30;99.90
22224;DHT22;11281;52.194;21.006;2023-08-21T09:01:39;24.60;99.90
22224;DHT22;11281;52.194;21.006;2023-08-21T09:05:41;24.50;99.90
22224;DHT22;11281;52.194;21.006;2023-08-21T09:09:46;24.80;99.90
22224;DHT22;11281;52.194;21.006;2023-08-21T09:13:52;24.80;99.90
22224;DHT22;11281;52.194;21.006;2023-08-21T09:17:54;24.60;99.90
22224;DHT22;11281;52.194;21.006;2023-08-21T09:21:56;24.80;99.90
22224;DHT22;11281;52.194;21.006;2023-08-21T09:25:57;24.50;99.90
22224;DHT22;11281;52.194;21.006;2023-08-21T09:30:01;24.60;99.90
22224;DHT22;11281;52.194;21.006;2023-08-21T09:34:05;24.30;99.90
22224;DHT22;11281;52.194;21.006;2023-08-21T09:38:07;24.30;99.90
22224;DHT22;11281;52.194;21.006;2023-08-21T09:42:10;24.60;99.90
22224;DHT22;11281;52.194;21.006;2023-08-21T09:46:14;24.50;99.90
22224;DHT22;11281;52.194;21.006;2023-08-21T09:50:19;24.60;99.90
22224;DHT22;11281;52.194;21.006;2023-08-21T09:54:21;24.80;99.90
22224;DHT22;11281;52.194;21.006;2023-08-21T09:58:24;24.80;99.90
22224;DHT22;11281;52.194;21.006;2023-08-21T10:02:26;25.00;99.90
22224;DHT22;11281;52.194;21.006;2023-08-21T10:06:29;25.10;99.90
22224;DHT22;11281;52.194;21.006;2023-08-21T10:10:33;25.10;99.90
22224;DHT22;11281;52.194;21.006;2023-08-21T10:14:37;25.20;99.90
22224;DHT22;11281;52.194;21.006;2023-08-21T10:18:44;25.30;99.90
22224;DHT22;11281;52.194;21.006;2023-08-21T10:22:49;25.30;99.90
22224;DHT22;11281;52.194;21.006;2023-08-21T10:26:53;25.50;99.90
22224;DHT22;11281;52.194;21.006;2023-08-21T10:30:54;25.90;99.90
22224;DHT22;11281;52.194;21.006;2023-08-21T10:35:00;25.80;99.90
22224;DHT22;11281;52.194;21.006;2023-08-21T10:39:03;25.60;99.90
22224;DHT22;11281;52.194;21.006;2023-08-21T10:47:44;25.60;99.90
22224;DHT22;11281;52.194;21.006;2023-08-21T10:51:49;25.70;99.90
22224;DHT22;11281;52.194;21.006;2023-08-21T10:55:55;25.70;99.90
22224;DHT22;11281;52.194;21.006;2023-08-21T10:59:58;25.80;99.90
22224;DHT22;11281;52.194;21.006;2023-08-21T11:04:11;26.00;99.90
22224;DHT22;11281;52.194;21.006;2023-08-21T11:08:13;26.00;99.90
22224;DHT22;11281;52.194;21.006;2023-08-21T11:12:18;26.00;99.90
22224;DHT22;11281;52.194;21.006;2023-08-21T11:16:20;26.10;99.90
22224;DHT22;11281;52.194;21.006;2023-08-21T11:20:22;26.00;99.90
22224;DHT22;11281;52.194;21.006;2023-08-21T11:24:41;25.90;97.80
22224;DHT22;11281;52.194;21.006;2023-08-21T11:28:45;25.90;98.90
22224;DHT22;11281;52.194;21.006;2023-08-21T11:32:46;26.10;97.30
22224;DHT22;11281;52.194;21.006;2023-08-21T11:36:48;26.30;99.70
22224;DHT22;11281;52.194;21.006;2023-08-21T11:40:57;26.30;99.40
22224;DHT22;11281;52.194;21.006;2023-08-21T11:45:01;26.40;97.80
22224;DHT22;11281;52.194;21.006;2023-08-21T11:49:04;26.40;92.60
22224;DHT22;11281;52.194;21.006;2023-08-21T11:53:06;26.50;93.10
22224;DHT22;11281;52.194;21.006;2023-08-21T11:57:09;26.70;91.90
22224;DHT22;11281;52.194;21.006;2023-08-21T12:01:20;26.60;93.80
22224;DHT22;11281;52.194;21.006;2023-08-21T12:05:22;26.60;91.50
22224;DHT22;11281;52.194;21.006;2023-08-21T12:09:23;26.60;91.40
22224;DHT22;11281;52.194;21.006;2023-08-21T12:13:25;26.90;92.70
22224;DHT22;11281;52.194;21.006;2023-08-21T12:17:27;26.80;90.90
22224;DHT22;11281;52.194;21.006;2023-08-21T12:21:29;27.00;90.70
22224;DHT22;11281;52.194;21.006;2023-08-21T12:25:30;27.10;84.80
22224;DHT22;11281;52.194;21.006;2023-08-21T12:29:33;27.10;82.40
22224;DHT22;11281;52.194;21.006;2023-08-21T12:33:35;27.10;81.70
22224;DHT22;11281;52.194;21.006;2023-08-21T12:37:37;27.20;82.90
22224;DHT22;11281;52.194;21.006;2023-08-21T12:41:39;27.20;81.20
22224;DHT22;11281;52.194;21.006;2023-08-21T12:45:40;27.20;81.80
22224;DHT22;11281;52.194;21.006;2023-08-21T12:49:43;27.30;82.80
22224;DHT22;11281;52.194;21.006;2023-08-21T12:53:45;27.20;82.00
22224;DHT22;11281;52.194;21.006;2023-08-21T12:57:46;27.20;84.90
22224;DHT22;11281;52.194;21.006;2023-08-21T13:01:48;27.50;81.70
22224;DHT22;11281;52.194;21.006;2023-08-21T13:05:50;27.30;80.60
22224;DHT22;11281;52.194;21.006;2023-08-21T13:09:52;27.30;82.20
22224;DHT22;11281;52.194;21.006;2023-08-21T13:13:54;27.30;85.50
22224;DHT22;11281;52.194;21.006;2023-08-21T13:17:57;27.10;78.60
22224;DHT22;11281;52.194;21.006;2023-08-21T13:21:59;27.10;77.40
22224;DHT22;11281;52.194;21.006;2023-08-21T13:26:01;27.10;82.80
22224;DHT22;11281;52.194;21.006;2023-08-21T13:30:03;27.20;76.40
22224;DHT22;11281;52.194;21.006;2023-08-21T13:34:06;27.00;76.80
22224;DHT22;11281;52.194;21.006;2023-08-21T13:38:08;27.00;80.30
22224;DHT22;11281;52.194;21.006;2023-08-21T13:42:09;27.00;79.60
22224;DHT22;11281;52.194;21.006;2023-08-21T13:46:11;26.90;79.80
22224;DHT22;11281;52.194;21.006;2023-08-21T13:50:14;27.10;83.90
22224;DHT22;11281;52.194;21.006;2023-08-21T13:54:17;27.00;79.70
22224;DHT22;11281;52.194;21.006;2023-08-21T13:58:20;26.90;80.90
22224;DHT22;11281;52.194;21.006;2023-08-21T14:02:22;27.00;82.60
22224;DHT22;11281;52.194;21.006;2023-08-21T14:06:24;26.90;79.10
22224;DHT22;11281;52.194;21.006;2023-08-21T14:10:26;27.10;80.80
22224;DHT22;11281;52.194;21.006;2023-08-21T14:14:28;27.00;81.20
22224;DHT22;11281;52.194;21.006;2023-08-21T14:18:29;26.90;82.20
22224;DHT22;11281;52.194;21.006;2023-08-21T14:22:31;26.80;81.70
22224;DHT22;11281;52.194;21.006;2023-08-21T14:26:33;26.90;79.60
22224;DHT22;11281;52.194;21.006;2023-08-21T14:30:34;26.80;82.40
22224;DHT22;11281;52.194;21.006;2023-08-21T14:34:36;27.00;83.50
22224;DHT22;11281;52.194;21.006;2023-08-21T14:38:37;26.70;82.10
22224;DHT22;11281;52.194;21.006;2023-08-21T14:42:39;26.20;85.40
22224;DHT22;11281;52.194;21.006;2023-08-21T14:46:40;25.90;85.30
22224;DHT22;11281;52.194;21.006;2023-08-21T14:50:42;25.90;86.00
22224;DHT22;11281;52.194;21.006;2023-08-21T14:54:44;26.30;89.90
22224;DHT22;11281;52.194;21.006;2023-08-21T14:58:47;26.10;89.40
22224;DHT22;11281;52.194;21.006;2023-08-21T15:02:48;26.00;88.20
22224;DHT22;11281;52.194;21.006;2023-08-21T15:06:50;26.30;87.50
22224;DHT22;11281;52.194;21.006;2023-08-21T15:10:52;26.40;86.00
22224;DHT22;11281;52.194;21.006;2023-08-21T15:14:54;26.30;86.00
22224;DHT22;11281;52.194;21.006;2023-08-21T15:19:14;26.50;90.30
22224;DHT22;11281;52.194;21.006;2023-08-21T15:23:25;26.40;90.10
22224;DHT22;11281;52.194;21.006;2023-08-21T15:27:26;26.20;85.80
22224;DHT22;11281;52.194;21.006;2023-08-21T15:31:28;26.30;88.50
22224;DHT22;11281;52.194;21.006;2023-08-21T15:35:30;26.30;87.50
22224;DHT22;11281;52.194;21.006;2023-08-21T15:39:31;26.10;86.80
22224;DHT22;11281;52.194;21.006;2023-08-21T15:43:34;25.90;89.50
22224;DHT22;11281;52.194;21.006;2023-08-21T15:47:36;25.70;92.50
22224;DHT22;11281;52.194;21.006;2023-08-21T15:51:38;25.40;92.30
22224;DHT22;11281;52.194;21.006;2023-08-21T15:55:39;25.20;90.40
22224;DHT22;11281;52.194;21.006;2023-08-21T15:59:41;25.30;91.50
22224;DHT22;11281;52.194;21.006;2023-08-21T16:03:43;25.20;90.70
22224;DHT22;11281;52.194;21.006;2023-08-21T16:07:46;25.20;93.60
22224;DHT22;11281;52.194;21.006;2023-08-21T16:11:48;25.10;93.80
22224;DHT22;11281;52.194;21.006;2023-08-21T16:15:50;24.90;95.90
22224;DHT22;11281;52.194;21.006;2023-08-21T16:19:51;24.80;94.60
22224;DHT22;11281;52.194;21.006;2023-08-21T16:23:53;24.80;96.20
22224;DHT22;11281;52.194;21.006;2023-08-21T16:27:55;24.70;97.10
22224;DHT22;11281;52.194;21.006;2023-08-21T16:31:57;24.60;96.50
22224;DHT22;11281;52.194;21.006;2023-08-21T16:35:58;24.50;97.90
22224;DHT22;11281;52.194;21.006;2023-08-21T16:40:00;24.40;96.50
22224;DHT22;11281;52.194;21.006;2023-08-21T16:44:02;24.20;99.00
22224;DHT22;11281;52.194;21.006;2023-08-21T16:48:04;24.00;99.80
22224;DHT22;11281;52.194;21.006;2023-08-21T16:52:06;23.90;99.90
22224;DHT22;11281;52.194;21.006;2023-08-21T16:56:07;23.70;99.90
22224;DHT22;11281;52.194;21.006;2023-08-21T17:00:10;23.60;99.90
22224;DHT22;11281;52.194;21.006;2023-08-21T17:04:12;23.50;99.90
22224;DHT22;11281;52.194;21.006;2023-08-21T17:08:14;23.40;99.90
22224;DHT22;11281;52.194;21.006;2023-08-21T17:12:16;23.30;99.90
22224;DHT22;11281;52.194;21.006;2023-08-21T17:16:18;23.30;99.90
22224;DHT22;11281;52.194;21.006;2023-08-21T17:20:20;23.30;99.90
22224;DHT22;11281;52.194;21.006;2023-08-21T17:24:22;23.10;99.90
22224;DHT22;11281;52.194;21.006;2023-08-21T17:28:23;22.80;99.90
22224;DHT22;11281;52.194;21.006;2023-08-21T17:32:25;22.60;99.90
22224;DHT22;11281;52.194;21.006;2023-08-21T17:36:26;22.50;99.90
22224;DHT22;11281;52.194;21.006;2023-08-21T17:40:28;22.40;99.90
22224;DHT22;11281;52.194;21.006;2023-08-21T17:44:30;22.20;99.90
22224;DHT22;11281;52.194;21.006;2023-08-21T17:48:32;22.10;99.90
22224;DHT22;11281;52.194;21.006;2023-08-21T17:52:33;21.90;99.90
22224;DHT22;11281;52.194;21.006;2023-08-21T17:56:35;21.70;99.90
22224;DHT22;11281;52.194;21.006;2023-08-21T18:00:37;21.60;99.90
22224;DHT22;11281;52.194;21.006;2023-08-21T18:04:39;21.40;99.90
22224;DHT22;11281;52.194;21.006;2023-08-21T18:08:40;21.20;99.90
22224;DHT22;11281;52.194;21.006;2023-08-21T18:12:43;21.10;99.90
22224;DHT22;11281;52.194;21.006;2023-08-21T18:16:44;21.00;99.90
22224;DHT22;11281;52.194;21.006;2023-08-21T18:24:52;20.80;99.90
22224;DHT22;11281;52.194;21.006;2023-08-21T18:28:55;20.60;99.90
22224;DHT22;11281;52.194;21.006;2023-08-21T18:32:56;20.60;99.90
22224;DHT22;11281;52.194;21.006;2023-08-21T18:37:00;20.50;99.90
22224;DHT22;11281;52.194;21.006;2023-08-21T18:41:02;20.30;99.90
22224;DHT22;11281;52.194;21.006;2023-08-21T18:45:05;20.20;99.90
22224;DHT22;11281;52.194;21.006;2023-08-21T18:49:07;20.10;99.90
22224;DHT22;11281;52.194;21.006;2023-08-21T18:53:10;20.00;99.90
22224;DHT22;11281;52.194;21.006;2023-08-21T18:57:13;19.90;99.90
22224;DHT22;11281;52.194;21.006;2023-08-21T19:01:15;19.80;99.90
22224;DHT22;11281;52.194;21.006;2023-08-21T19:05:17;19.70;99.90
22224;DHT22;11281;52.194;21.006;2023-08-21T19:09:19;19.70;99.90
22224;DHT22;11281;52.194;21.006;2023-08-21T19:13:21;19.60;99.90
22224;DHT22;11281;52.194;21.006;2023-08-21T19:17:23;19.50;99.90
22224;DHT22;11281;52.194;21.006;2023-08-21T19:21:25;19.50;99.90
22224;DHT22;11281;52.194;21.006;2023-08-21T19:25:27;19.40;99.90
22224;DHT22;11281;52.194;21.006;2023-08-21T19:29:30;19.50;99.90
22224;DHT22;11281;52.194;21.006;2023-08-21T19:33:32;19.40;99.90
22224;DHT22;11281;52.194;21.006;2023-08-21T19:37:34;19.40;99.90
22224;DHT22;11281;52.194;21.006;2023-08-21T19:41:36;19.30;99.90
22224;DHT22;11281;52.194;21.006;2023-08-21T19:45:38;19.40;99.90
22224;DHT22;11281;52.194;21.006;2023-08-21T19:49:40;19.40;99.90
22224;DHT22;11281;52.194;21.006;2023-08-21T19:53:42;19.30;99.90
22224;DHT22;11281;52.194;21.006;2023-08-21T19:57:45;19.20;99.90
22224;DHT22;11281;52.194;21.006;2023-08-21T20:01:48;19.10;99.90
22224;DHT22;11281;52.194;21.006;2023-08-21T20:05:50;19.00;99.90
22224;DHT22;11281;52.194;21.006;2023-08-21T20:10:00;19.00;99.90
22224;DHT22;11281;52.194;21.006;2023-08-21T20:14:02;18.90;99.90
22224;DHT22;11281;52.194;21.006;2023-08-21T20:18:04;19.00;99.90
22224;DHT22;11281;52.194;21.006;2023-08-21T20:22:07;18.90;99.90
22224;DHT22;11281;52.194;21.006;2023-08-21T20:26:09;18.90;99.90
22224;DHT22;11281;52.194;21.006;2023-08-21T20:30:11;18.80;99.90
22224;DHT22;11281;52.194;21.006;2023-08-21T20:34:15;18.70;99.90
22224;DHT22;11281;52.194;21.006;2023-08-21T20:38:17;18.60;99.90
22224;DHT22;11281;52.194;21.006;2023-08-21T20:42:21;18.60;99.90
22224;DHT22;11281;52.194;21.006;2023-08-21T20:46:23;18.50;99.90
22224;DHT22;11281;52.194;21.006;2023-08-21T20:50:27;18.40;99.90
22224;DHT22;11281;52.194;21.006;2023-08-21T20:54:29;18.30;99.90
22224;DHT22;11281;52.194;21.006;2023-08-21T20:58:35;18.20;99.90
22224;DHT22;11281;52.194;21.006;2023-08-21T21:02:38;18.20;99.90
22224;DHT22;11281;52.194;21.006;2023-08-21T21:06:40;18.20;99.90
22224;DHT22;11281;52.194;21.006;2023-08-21T21:10:42;18.20;99.90
22224;DHT22;11281;52.194;21.006;2023-08-21T21:15:23;18.30;99.90
22224;DHT22;11281;52.194;21.006;2023-08-21T21:19:43;18.50;99.90
22224;DHT22;11281;52.194;21.006;2023-08-21T21:24:05;18.60;99.90
22224;DHT22;11281;52.194;21.006;2023-08-21T21:28:27;18.70;99.90
22224;DHT22;11281;52.194;21.006;2023-08-21T21:32:53;18.70;99.90
22224;DHT22;11281;52.194;21.006;2023-08-21T21:36:56;18.80;99.90
22224;DHT22;11281;52.194;21.006;2023-08-21T21:41:02;18.80;99.90
22224;DHT22;11281;52.194;21.006;2023-08-21T21:45:05;18.70;99.90
22224;DHT22;11281;52.194;21.006;2023-08-21T21:54:39;18.60;99.90
22224;DHT22;11281;52.194;21.006;2023-08-21T22:09:33;18.80;99.90
22224;DHT22;11281;52.194;21.006;2023-08-21T22:13:40;18.70;99.90
22224;DHT22;11281;52.194;21.006;2023-08-21T22:18:10;18.70;99.90
22224;DHT22;11281;52.194;21.006;2023-08-21T22:22:26;18.60;99.90
22224;DHT22;11281;52.194;21.006;2023-08-21T22:32:41;18.70;99.90
22224;DHT22;11281;52.194;21.006;2023-08-21T22:36:57;18.60;99.90
22224;DHT22;11281;52.194;21.006;2023-08-21T22:41:04;18.50;99.90
22224;DHT22;11281;52.194;21.006;2023-08-21T22:50:40;18.40;99.90
22224;DHT22;11281;52.194;21.006;2023-08-21T23:10:28;18.10;99.90
22224;DHT22;11281;52.194;21.006;2023-08-21T23:14:43;17.90;99.90
22224;DHT22;11281;52.194;21.006;2023-08-21T23:18:56;18.10;99.90
22224;DHT22;11281;52.194;21.006;2023-08-21T23:23:13;18.20;99.90
22224;DHT22;11281;52.194;21.006;2023-08-21T23:27:30;18.20;99.90
22224;DHT22;11281;52.194;21.006;2023-08-21T23:31:35;18.10;99.90
22224;DHT22;11281;52.194;21.006;2023-08-21T23:35:40;18.00;99.90
22224;DHT22;11281;52.194;21.006;2023-08-21T23:39:55;18.00;99.90
22224;DHT22;11281;52.194;21.006;2023-08-21T23:44:01;18.00;99.90
22224;DHT22;11281;52.194;21.006;2023-08-21T23:48:06;18.00;99.90
22224;DHT22;11281;52.194;21.006;2023-08-21T23:52:08;18.00;99.90
22224;DHT22;11281;52.194;21.006;2023-08-21T23:56:10;18.00;99.90
